D/T METAR WX W/DIR W/SPE G/SPE TEMP DEWP
6/06/20 10:50 EGGP 060950Z 31021KT 9999 -SHRA FEW015 SCT018 BKN044TCU 14/09 Q0994 -SHRA NW (310°) 24.2mph 14°C 9°C
6/06/20 09:50 EGGP 060850Z 31015G25KT 9999 -SHRA SCT015 SCT022 BKN034TCU 13/10 Q0994 -SHRA NW (310°) 17.3mph 28.8mph 13°C 10°C
6/06/20 09:20 EGGP 060820Z 31018G32KT 290V350 9999 SCT012 BKN015 12/10 Q0993 NW (310°) 20.7mph 36.8mph 12°C 10°C
6/06/20 08:50 EGGP 060750Z 31017KT 7000 -RA BKN008 BKN012 12/11 Q0993 -RA NW (310°) 19.6mph 12°C 11°C
6/06/20 08:20 EGGP 060720Z 31019G30KT 7000 -RA BKN008 BKN012 11/10 Q0993 -RA NW (310°) 21.9mph 34.5mph 11°C 10°C
6/06/20 07:50 EGGP 060650Z 33022KT 250V350 5000 -RA OVC010 10/09 Q0993 -RA NNW (330°) 25.3mph 10°C 9°C
6/06/20 07:20 EGGP 060620Z 29019G29KT 180V350 5000 -RA OVC008 09/08 Q0993 -RA WNW (290°) 21.9mph 33.4mph 9°C 8°C
6/06/20 06:50 EGGP 060550Z 25021KT 180V350 5000 -RA OVC009 09/08 Q0993 RERA -RA WSW (250°) 24.2mph 9°C 8°C
6/06/20 06:20 EGGP 060520Z AUTO 27022KT 180V350 4600 +RA BKN007/// OVC010/// 08/07 Q0993 +RA W (270°) 25.3mph 8°C 7°C
6/06/20 05:50 EGGP 060450Z AUTO 32024KT 190V350 7000 RA BKN010/// OVC014/// 09/07 Q0993 RA NW (320°) 27.6mph 9°C 7°C
6/06/20 05:20 EGGP 060420Z AUTO 33025KT 190V350 9000 RA BKN011/// BKN015/// OVC024/// 09/07 Q0993 RA NNW (330°) 28.8mph 9°C 7°C
6/06/20 04:50 EGGP 060350Z AUTO 33023G34KT 190V350 9000 RA BKN012/// BKN016/// OVC025/// 09/07 Q0994 RA NNW (330°) 26.5mph 39.1mph 9°C 7°C
6/06/20 04:20 EGGP 060320Z AUTO 33026G37KT 180V350 9999 -RA BKN014/// BKN018/// OVC030/// 10/08 Q0994 RERA -RA NNW (330°) 29.9mph 42.6mph 10°C 8°C
6/06/20 03:50 EGGP 060250Z AUTO 33027KT 250V350 9999 -RA SCT015/// BKN019/// OVC024/// 09/07 Q0994 RERA -RA NNW (330°) 31.1mph 9°C 7°C
6/06/20 03:20 EGGP 060220Z AUTO 33026G37KT 210V350 9000 RA BKN018/// BKN024/// OVC029/// 09/07 Q0995 RA NNW (330°) 29.9mph 42.6mph 9°C 7°C
6/06/20 02:50 EGGP 060150Z AUTO 33023KT 280V350 9000 -RA BKN020/// OVC025/// 09/06 Q0995 RERA -RA NNW (330°) 26.5mph 9°C 6°C
6/06/20 02:20 EGGP 060120Z AUTO 32024G36KT 200V350 9999 -RA BKN022/// BKN027/// OVC032/// 09/06 Q0995 RERA -RA NW (320°) 27.6mph 41.4mph 9°C 6°C
6/06/20 01:50 EGGP 060050Z AUTO 32026G39KT 290V350 9999 BKN025/// BKN031/// 10/05 Q0995 NW (320°) 29.9mph 44.9mph 10°C 5°C
6/06/20 01:20 EGGP 060020Z AUTO 33024KT 190V350 9999 SCT025/// BKN030/// OVC037/// 10/05 Q0996 NNW (330°) 27.6mph 10°C 5°C
6/06/20 00:50 EGGP 052350Z AUTO 32023KT 9999 SCT027/// BKN034/// BKN039/// 09/03 Q0996 NW (320°) 26.5mph 9°C 3°C
6/06/20 00:20 EGGP 052320Z AUTO 31024G36KT 9999 FEW026/// SCT031/// BKN044/// 09/03 Q0996 NW (310°) 27.6mph 41.4mph 9°C 3°C
5/06/20 23:50 EGGP 052250Z AUTO 32020KT 290V350 9999 BKN031/// BKN036/// BKN044/// 10/04 Q0996 RERA NW (320°) 23.0mph 10°C 4°C
5/06/20 23:20 EGGP 052220Z AUTO 31024KT 9999 -RA FEW013/// SCT034/// BKN039/// 10/03 Q0997 -RA NW (310°) 27.6mph 10°C 3°C
5/06/20 22:50 EGGP 052150Z AUTO 31020G30KT 9999 FEW026/// SCT031/// BKN037/// 10/03 Q0997 NW (310°) 23.0mph 34.5mph 10°C 3°C
5/06/20 22:20 EGGP 052120Z AUTO 31023KT 9999 SCT028/// SCT039/// 11/03 Q0997 NW (310°) 26.5mph 11°C 3°C
5/06/20 21:50 EGGP 052050Z AUTO 31020KT 9999 FEW026/// SCT032/// BKN045/// 10/03 Q0997 NW (310°) 23.0mph 10°C 3°C
5/06/20 21:20 EGGP 052020Z AUTO 31021G31KT 290V350 9999 FEW025/// BKN031/// BKN038/// 11/03 Q0997 NW (310°) 24.2mph 35.7mph 11°C 3°C
5/06/20 20:50 EGGP 051950Z AUTO 31024G34KT 290V350 9999 FEW029/// SCT034/// BKN039/// 11/03 Q0997 NW (310°) 27.6mph 39.1mph 11°C 3°C
5/06/20 20:20 EGGP 051920Z AUTO 31019KT 280V350 9999 BKN032/// 11/02 Q0997 NW (310°) 21.9mph 11°C 2°C
5/06/20 19:50 EGGP 051850Z AUTO 30023G33KT 280V350 9999 FEW033/// BKN038/// BKN047/// 12/03 Q0997 WNW (300°) 26.5mph 38.0mph 12°C 3°C
5/06/20 19:20 EGGP 051820Z AUTO 30023G36KT 9999 FEW032/// BKN038/// 12/02 Q0997 WNW (300°) 26.5mph 41.4mph 12°C 2°C
5/06/20 18:50 EGGP 051750Z 30024KT 9999 FEW032 BKN039 13/03 Q0997 WNW (300°) 27.6mph 13°C 3°C
5/06/20 18:20 EGGP 051720Z 30023G33KT 9999 SCT038 13/04 Q0997 WNW (300°) 26.5mph 38.0mph 13°C 4°C
5/06/20 17:50 EGGP 051650Z 30024G34KT 9999 FEW034 SCT038 13/03 Q0997 WNW (300°) 27.6mph 39.1mph 13°C 3°C
5/06/20 17:20 EGGP 051620Z 30023G33KT 9999 FEW031 SCT036 13/04 Q0997 WNW (300°) 26.5mph 38.0mph 13°C 4°C
5/06/20 16:50 EGGP 051550Z 30023KT 9999 FEW031 SCT036 13/04 Q0997 WNW (300°) 26.5mph 13°C 4°C
5/06/20 16:20 EGGP 051520Z 29024KT 9999 FEW033 SCT038 13/04 Q0997 WNW (290°) 27.6mph 13°C 4°C
5/06/20 15:50 EGGP 051450Z 30024KT 9999 FEW033 SCT038 13/04 Q0997 WNW (300°) 27.6mph 13°C 4°C
5/06/20 15:20 EGGP 051420Z 30026G37KT 9999 FEW033 SCT038 13/03 Q0997 WNW (300°) 29.9mph 42.6mph 13°C 3°C
5/06/20 14:50 EGGP 051350Z 30024G34KT 9999 FEW033 SCT039 14/05 Q0997 WNW (300°) 27.6mph 39.1mph 14°C 5°C
5/06/20 14:20 EGGP 051320Z 29025G37KT 9999 SCT037 SCT048 14/04 Q0997 WNW (290°) 28.8mph 42.6mph 14°C 4°C
5/06/20 13:50 EGGP 051250Z 30021G31KT 9999 VCSH FEW030 BKN036 13/05 Q0997 VCSH WNW (300°) 24.2mph 35.7mph 13°C 5°C
5/06/20 13:20 EGGP 051220Z 29022KT 9999 FEW030 BKN035 14/06 Q0997 WNW (290°) 25.3mph 14°C 6°C
5/06/20 12:50 EGGP 051150Z 31022KT 9999 SCT030 SCT042 13/05 Q0997 NW (310°) 25.3mph 13°C 5°C
5/06/20 12:20 EGGP 051120Z 31020KT 9999 SCT030 SCT036 11/05 Q0997 NW (310°) 23.0mph 11°C 5°C
5/06/20 11:50 EGGP 051050Z 31020G30KT 9999 SCT030 SCT036 11/06 Q0997 NW (310°) 23.0mph 34.5mph 11°C 6°C
5/06/20 11:20 EGGP 051020Z 32020KT 9999 SCT030 SCT036 11/06 Q0996 NW (320°) 23.0mph 11°C 6°C
5/06/20 10:50 EGGP 050950Z 32015KT 290V350 9999 SCT030 SCT036 11/07 Q0997 NW (320°) 17.3mph 11°C 7°C
5/06/20 10:20 EGGP 050920Z 32015KT 290V350 9999 FEW020 SCT026 10/07 Q0997 NW (320°) 17.3mph 10°C 7°C
5/06/20 09:50 EGGP 050850Z 34008KT 9999 FEW022 SCT028 BKN032 11/09 Q0996 NNW (340°) 9.2mph 11°C 9°C
5/06/20 08:50 EGGP 050750Z 35008KT 7000 SCT022 BKN028 09/07 Q0997 N (350°) 9.2mph 9°C 7°C
5/06/20 08:20 EGGP 050720Z 35012KT 7000 -RA FEW010 SCT022 BKN028 08/07 Q0997 -RA N (350°) 13.8mph 8°C 7°C
5/06/20 07:50 EGGP 050650Z 34008KT 8000 -RA SCT020 BKN038 09/07 Q0997 -RA NNW (340°) 9.2mph 9°C 7°C
5/06/20 06:50 EGGP 050550Z 35008KT 7000 -RA FEW016 SCT030 BKN038 09/08 Q0996 RERA -RA N (350°) 9.2mph 9°C 8°C
5/06/20 06:20 EGGP 050520Z AUTO 35010KT 9999 -RA FEW020/// SCT026/// BKN038/// 10/07 Q0996 RERA -RA N (350°) 11.5mph 10°C 7°C
5/06/20 05:50 EGGP 050450Z AUTO 36011KT 9999 BKN017/// 11/07 Q0996 N (360°) 12.7mph 11°C 7°C
5/06/20 05:20 EGGP 050420Z AUTO 33016KT 9999 FEW020/// 11/07 Q0995 NNW (330°) 18.4mph 11°C 7°C
5/06/20 04:50 EGGP 050350Z AUTO 32016KT 290V350 9999 SCT013/// BKN018/// BKN031/// 11/08 Q0995 RERA NW (320°) 18.4mph 11°C 8°C
5/06/20 04:20 EGGP 050320Z AUTO 31020KT 9999 BKN015/// OVC037/// 12/08 Q0995 NW (310°) 23.0mph 12°C 8°C
5/06/20 03:50 EGGP 050250Z AUTO 32017KT 9999 BKN016/// OVC028/// 12/09 Q0996 NW (320°) 19.6mph 12°C 9°C
5/06/20 03:20 EGGP 050220Z AUTO 31017KT 290V350 9999 BKN018/// OVC030/// 11/07 Q0996 NW (310°) 19.6mph 11°C 7°C
5/06/20 02:50 EGGP 050150Z AUTO 31016KT 9999 SCT020/// BKN026/// BKN031/// 11/06 Q0996 NW (310°) 18.4mph 11°C 6°C
5/06/20 02:20 EGGP 050120Z AUTO 31016KT 9999 SCT021/// BKN032/// OVC046/// 11/07 Q0997 NW (310°) 18.4mph 11°C 7°C
5/06/20 01:50 EGGP 050050Z AUTO 32016KT 9999 FEW022/// SCT030/// BKN039/// 12/07 Q0997 NW (320°) 18.4mph 12°C 7°C
5/06/20 01:20 EGGP 050020Z AUTO 31017KT 9999 SCT020/// BKN025/// BKN031/// 11/07 Q0997 NW (310°) 19.6mph 11°C 7°C
5/06/20 00:50 EGGP 042350Z AUTO 30016KT 9999 SCT019/// BKN039/// OVC046/// 11/07 Q0998 WNW (300°) 18.4mph 11°C 7°C
5/06/20 00:20 EGGP 042320Z AUTO 31016KT 9999 SCT021/// BKN027/// BKN034/// 12/07 Q0998 NW (310°) 18.4mph 12°C 7°C
4/06/20 23:50 EGGP 042250Z AUTO 30012KT 270V350 9999 SCT024/// SCT031/// BKN037/// 12/07 Q0998 WNW (300°) 13.8mph 12°C 7°C
4/06/20 23:20 EGGP 042220Z AUTO 30014KT 9999 SCT019/// BKN037/// BKN045/// 11/07 Q0999 WNW (300°) 16.1mph 11°C 7°C
4/06/20 22:50 EGGP 042150Z AUTO 29012KT 9999 BKN018/// BKN023/// BKN035/// 12/08 Q0999 WNW (290°) 13.8mph 12°C 8°C
4/06/20 22:20 EGGP 042120Z AUTO 29012KT 9999 SCT021/// BKN027/// BKN032/// 12/09 Q0999 WNW (290°) 13.8mph 12°C 9°C
4/06/20 21:50 EGGP 042050Z AUTO 30013KT 9999 FEW022/// SCT027/// 12/08 Q0999 WNW (300°) 15.0mph 12°C 8°C
4/06/20 21:20 EGGP 042020Z 31011KT 9999 VCSH FEW018 SCT032 13/10 Q0999 VCSH NW (310°) 12.7mph 13°C 10°C
4/06/20 20:50 EGGP 041950Z 32007KT 290V350 9999 VCSH FEW018 SCT032 13/10 Q0999 VCSH NW (320°) 8.1mph 13°C 10°C
4/06/20 20:20 EGGP 041920Z 32008KT 9999 -SHRA FEW015 SCT032 OVC046 12/10 Q1000 -SHRA NW (320°) 9.2mph 12°C 10°C
4/06/20 19:20 EGGP 041820Z 31006KT 9999 9000SE -SHRA FEW008 BKN018 BKN035 13/10 Q1000 -SHRA NW (310°) 6.9mph 13°C 10°C
4/06/20 18:50 EGGP 041750Z 29010KT 9999 7000N -SHRA FEW016 SCT020 BKN035 12/09 Q1000 -SHRA WNW (290°) 11.5mph 12°C 9°C
4/06/20 18:20 EGGP 041720Z 29014KT 9999 -SHRA SCT016 SCT022 BKN035 13/09 Q1001 -SHRA WNW (290°) 16.1mph 13°C 9°C
4/06/20 17:50 EGGP 041650Z 29015KT 9999 VCSH FEW016 SCT023 BKN038 13/09 Q1001 VCSH WNW (290°) 17.3mph 13°C 9°C
4/06/20 17:20 EGGP 041620Z 29011KT 9999 SCT016 SCT026 BKN042 14/10 Q1001 WNW (290°) 12.7mph 14°C 10°C
4/06/20 16:50 EGGP 041550Z 29015KT 9999 FEW020 SCT026 BKN042 13/08 Q1001 WNW (290°) 17.3mph 13°C 8°C
4/06/20 16:20 EGGP 041520Z 29014KT 9999 FEW019 SCT026 BKN042 14/08 Q1002 WNW (290°) 16.1mph 14°C 8°C
4/06/20 15:50 EGGP 041450Z 29013KT 9999 FEW019 SCT026 BKN038 14/09 Q1002 WNW (290°) 15.0mph 14°C 9°C
4/06/20 15:20 EGGP 041420Z 30016KT 9999 FEW026 BKN032 15/09 Q1002 WNW (300°) 18.4mph 15°C 9°C
4/06/20 14:50 EGGP 041350Z 30015KT 9999 SCT026 BKN032 15/08 Q1002 WNW (300°) 17.3mph 15°C 8°C
4/06/20 14:20 EGGP 041320Z 29015KT 9999 SCT020 SCT026 BKN032 14/07 Q1003 WNW (290°) 17.3mph 14°C 7°C
4/06/20 13:50 EGGP 041250Z 29017KT 9999 SCT020 SCT026 BKN032 15/08 Q1003 WNW (290°) 19.6mph 15°C 8°C
4/06/20 13:20 EGGP 041220Z 30017KT 9999 SCT020 SCT026 BKN032 13/08 Q1003 WNW (300°) 19.6mph 13°C 8°C
4/06/20 12:20 EGGP 041120Z 29016KT 9999 SCT028 SCT036 14/09 Q1004 WNW (290°) 18.4mph 14°C 9°C
4/06/20 11:50 EGGP 041050Z 30013KT 270V330 9999 SCT028 SCT036 15/08 Q1004 WNW (300°) 15.0mph 15°C 8°C
4/06/20 11:20 EGGP 041020Z 29015KT 9999 SCT028 SCT036 14/07 Q1004 WNW (290°) 17.3mph 14°C 7°C
4/06/20 10:50 EGGP 040950Z 29014KT 9999 SCT028 SCT036 13/06 Q1004 WNW (290°) 16.1mph 13°C 6°C
4/06/20 10:20 EGGP 040920Z 29014KT 9999 SCT022 SCT032 12/06 Q1005 WNW (290°) 16.1mph 12°C 6°C
4/06/20 09:50 EGGP 040850Z 30014KT 9999 SCT022 SCT032 13/08 Q1005 WNW (300°) 16.1mph 13°C 8°C
4/06/20 09:20 EGGP 040820Z 29014KT 250V340 9999 SCT020 SCT032 12/08 Q1005 WNW (290°) 16.1mph 12°C 8°C
4/06/20 08:50 EGGP 040750Z 32006KT 220V350 9999 -RA SCT012 BKN016 12/09 Q1005 -RA NW (320°) 6.9mph 12°C 9°C